createdAt,value
2023-05-21T00:00:20.773Z,1899.00
2023-05-21T00:01:20.748Z,1915.00
2023-05-21T00:02:20.789Z,1921.00
2023-05-21T00:03:20.728Z,1919.00
2023-05-21T00:04:20.690Z,1925.00
2023-05-21T00:05:20.692Z,1905.00
2023-05-21T00:06:20.784Z,1905.00
2023-05-21T00:07:20.750Z,1899.00
2023-05-21T00:08:20.804Z,1903.00
2023-05-21T00:09:20.921Z,1888.00
2023-05-21T00:10:20.878Z,1884.00
2023-05-21T00:11:20.904Z,1878.00
2023-05-21T00:12:20.878Z,1878.00
2023-05-21T00:13:20.876Z,1879.00
2023-05-21T00:14:20.856Z,1854.00
2023-05-21T00:15:20.846Z,1871.00
2023-05-21T00:16:20.958Z,1866.00
2023-05-21T00:17:20.819Z,1857.00
2023-05-21T00:18:20.803Z,1850.00
2023-05-21T00:19:20.801Z,1864.00
2023-05-21T00:20:20.793Z,1849.00
2023-05-21T00:21:20.854Z,1869.00
2023-05-21T00:22:20.899Z,1849.00
2023-05-21T00:23:20.973Z,1859.00
2023-05-21T00:24:21.015Z,1849.00
2023-05-21T00:25:21.067Z,1851.00
2023-05-21T00:26:21.129Z,1848.00
2023-05-21T00:27:21.173Z,1825.00
2023-05-21T00:28:21.241Z,1802.00
2023-05-21T00:29:21.292Z,1808.00
2023-05-21T00:30:21.360Z,1827.00
2023-05-21T00:31:21.417Z,1840.00
2023-05-21T00:32:21.418Z,1820.00
2023-05-21T00:33:21.421Z,1825.00
2023-05-21T00:34:21.466Z,1828.00
2023-05-21T00:35:21.462Z,1812.00
2023-05-21T00:36:21.489Z,1812.00
2023-05-21T00:37:21.524Z,1818.00
2023-05-21T00:38:21.562Z,1821.00
2023-05-21T00:39:21.597Z,1819.00
2023-05-21T00:40:21.639Z,1811.00
2023-05-21T00:41:21.679Z,1815.00
2023-05-21T00:42:21.734Z,1801.00
2023-05-21T00:43:21.781Z,1834.00
2023-05-21T00:44:21.834Z,1796.00
2023-05-21T00:45:21.890Z,1804.00
2023-05-21T00:46:21.970Z,1816.00
2023-05-21T00:47:22.056Z,1784.00
2023-05-21T00:48:22.087Z,1797.00
2023-05-21T00:49:22.132Z,1789.00
2023-05-21T00:50:22.197Z,1806.00
2023-05-21T00:51:22.256Z,1791.00
2023-05-21T00:52:22.313Z,1799.00
2023-05-21T00:53:22.314Z,1800.00
2023-05-21T00:54:22.281Z,1801.00
2023-05-21T00:55:22.280Z,1802.00
2023-05-21T00:56:22.280Z,1800.00
2023-05-21T00:57:22.260Z,1824.00
2023-05-21T00:58:22.248Z,1810.00
2023-05-21T00:59:22.250Z,1811.00
2023-05-21T01:00:22.226Z,1799.00
2023-05-21T01:01:22.269Z,1808.00
2023-05-21T01:02:22.289Z,1811.00
2023-05-21T01:03:22.336Z,1780.00
2023-05-21T01:04:22.322Z,1780.00
2023-05-21T01:05:22.381Z,1787.00
2023-05-21T01:06:22.422Z,1795.00
2023-05-21T01:07:22.475Z,1791.00
2023-05-21T01:08:22.537Z,1785.00
2023-05-21T01:09:22.584Z,1786.00
2023-05-21T01:10:22.618Z,1790.00
2023-05-21T01:11:22.673Z,1779.00
2023-05-21T01:12:22.708Z,1778.00
2023-05-21T01:13:22.750Z,1765.00
2023-05-21T01:14:22.816Z,1790.00
2023-05-21T01:15:22.859Z,1783.00
2023-05-21T01:16:22.948Z,1779.00
2023-05-21T01:17:22.995Z,1777.00
2023-05-21T01:18:23.051Z,1776.00
2023-05-21T01:19:23.126Z,1785.00
2023-05-21T01:20:23.180Z,1788.00
2023-05-21T01:21:23.201Z,1782.00
2023-05-21T01:22:23.249Z,1775.00
2023-05-21T01:23:23.276Z,1785.00
2023-05-21T01:24:23.348Z,1779.00
2023-05-21T01:25:23.382Z,1769.00
2023-05-21T01:26:23.444Z,1791.00
2023-05-21T01:27:23.481Z,1779.00
2023-05-21T01:28:23.515Z,1767.00
2023-05-21T01:29:23.593Z,1769.00
2023-05-21T01:30:23.651Z,1778.00
2023-05-21T01:31:23.723Z,1801.00
2023-05-21T01:32:23.752Z,1783.00
2023-05-21T01:33:23.818Z,1792.00
2023-05-21T01:34:23.841Z,1792.00
2023-05-21T01:35:23.885Z,1776.00
2023-05-21T01:36:24.037Z,1785.00
2023-05-21T01:37:23.985Z,1778.00
2023-05-21T01:38:24.057Z,1768.00
2023-05-21T01:39:24.099Z,1785.00
2023-05-21T01:40:24.162Z,1783.00
2023-05-21T01:41:24.201Z,1779.00
2023-05-21T01:42:24.260Z,1789.00
2023-05-21T01:43:24.327Z,1779.00
2023-05-21T01:44:24.360Z,1780.00
2023-05-21T01:45:24.397Z,1789.00
2023-05-21T01:46:24.465Z,1786.00
2023-05-21T01:47:24.532Z,1771.00
2023-05-21T01:48:24.552Z,1799.00
2023-05-21T01:49:24.615Z,1778.00
2023-05-21T01:50:24.686Z,1796.00
2023-05-21T01:51:24.725Z,1779.00
2023-05-21T01:52:24.792Z,1781.00
2023-05-21T01:53:24.838Z,1779.00
2023-05-21T01:54:24.902Z,1784.00
2023-05-21T01:55:25.127Z,1784.00
2023-05-21T01:56:24.975Z,1784.00
2023-05-21T01:57:25.013Z,1757.00
2023-05-21T01:58:25.069Z,1780.00
2023-05-21T01:59:25.149Z,1783.00
2023-05-21T02:00:25.180Z,1776.00
2023-05-21T02:01:25.275Z,1780.00
2023-05-21T02:02:25.436Z,1778.00
2023-05-21T02:03:25.415Z,1768.00
2023-05-21T02:04:25.312Z,1768.00
2023-05-21T02:05:25.297Z,1770.00
2023-05-21T02:06:25.260Z,1772.00
2023-05-21T02:07:25.260Z,1777.00
2023-05-21T02:08:25.248Z,1773.00
2023-05-21T02:09:25.250Z,1779.00
2023-05-21T02:10:25.236Z,1782.00
2023-05-21T02:11:25.227Z,1779.00
2023-05-21T02:12:25.231Z,1774.00
2023-05-21T02:13:26.833Z,1772.00
2023-05-21T02:14:25.354Z,1772.00
2023-05-21T02:15:25.424Z,1765.00
2023-05-21T02:16:25.502Z,1774.00
2023-05-21T02:17:25.608Z,1758.00
2023-05-21T02:18:25.619Z,1769.00
2023-05-21T02:19:25.688Z,1775.00
2023-05-21T02:20:25.732Z,1765.00
2023-05-21T02:21:25.827Z,1770.00
2023-05-21T02:22:25.831Z,1782.00
2023-05-21T02:23:25.901Z,1762.00
2023-05-21T02:24:25.941Z,1761.00
2023-05-21T02:25:26.028Z,1782.00
2023-05-21T02:26:26.067Z,1766.00
2023-05-21T02:27:26.123Z,1760.00
2023-05-21T02:28:26.207Z,1752.00
2023-05-21T02:29:26.224Z,1752.00
2023-05-21T02:30:26.286Z,1736.00
2023-05-21T02:31:26.334Z,1747.00
2023-05-21T02:32:26.438Z,1743.00
2023-05-21T02:33:26.473Z,1739.00
2023-05-21T02:34:26.546Z,1749.00
2023-05-21T02:35:26.575Z,1756.00
2023-05-21T02:36:26.604Z,1741.00
2023-05-21T02:37:26.670Z,1720.00
2023-05-21T02:38:26.750Z,1726.00
2023-05-21T02:39:26.783Z,1737.00
2023-05-21T02:40:26.841Z,1736.00
2023-05-21T02:41:26.865Z,1731.00
2023-05-21T02:42:26.884Z,1728.00
2023-05-21T02:43:26.955Z,1734.00
2023-05-21T02:44:27.004Z,1740.00
2023-05-21T02:45:27.032Z,1725.00
2023-05-21T02:46:27.098Z,1725.00
2023-05-21T02:47:27.164Z,1717.00
2023-05-21T02:48:27.179Z,1722.00
2023-05-21T02:49:27.249Z,1715.00
2023-05-21T02:50:27.305Z,1716.00
2023-05-21T02:51:27.357Z,1704.00
2023-05-21T02:52:27.393Z,1715.00
2023-05-21T02:53:27.464Z,1726.00
2023-05-21T02:54:27.515Z,1726.00
2023-05-21T02:55:27.588Z,1719.00
2023-05-21T02:56:27.645Z,1705.00
2023-05-21T02:57:27.702Z,1723.00
2023-05-21T02:58:27.756Z,1695.00
2023-05-21T02:59:27.813Z,1694.00
2023-05-21T03:00:27.919Z,1717.00
2023-05-21T03:01:28.015Z,1726.00
2023-05-21T03:02:28.052Z,1722.00
2023-05-21T03:03:28.234Z,1718.00
2023-05-21T03:04:28.121Z,1720.00
2023-05-21T03:05:28.181Z,1703.00
2023-05-21T03:06:28.227Z,1714.00
2023-05-21T03:07:28.285Z,1724.00
2023-05-21T03:08:28.357Z,1719.00
2023-05-21T03:09:28.407Z,1710.00
2023-05-21T03:10:28.454Z,1713.00
2023-05-21T03:11:28.519Z,1720.00
2023-05-21T03:12:28.530Z,1722.00
2023-05-21T03:13:28.597Z,1713.00
2023-05-21T03:14:28.618Z,1707.00
2023-05-21T03:15:28.692Z,1708.00
2023-05-21T03:16:28.795Z,1698.00
2023-05-21T03:17:28.820Z,1698.00
2023-05-21T03:18:28.847Z,1713.00
2023-05-21T03:19:28.934Z,1703.00
2023-05-21T03:20:28.954Z,1697.00
2023-05-21T03:21:28.968Z,1693.00
2023-05-21T03:22:28.996Z,1705.00
2023-05-21T03:23:29.061Z,1718.00
2023-05-21T03:24:29.124Z,1684.00
2023-05-21T03:25:29.187Z,1689.00
2023-05-21T03:26:29.226Z,1676.00
2023-05-21T03:27:29.289Z,1700.00
2023-05-21T03:28:29.335Z,1678.00
2023-05-21T03:29:29.426Z,1686.00
2023-05-21T03:30:29.440Z,1700.00
2023-05-21T03:31:29.490Z,1678.00
2023-05-21T03:32:29.549Z,1667.00
2023-05-21T03:33:29.604Z,1671.00
2023-05-21T03:34:29.650Z,1678.00
2023-05-21T03:35:29.734Z,1668.00
2023-05-21T03:36:29.763Z,1647.00
2023-05-21T03:37:29.835Z,1675.00
2023-05-21T03:38:29.887Z,1676.00
2023-05-21T03:39:29.929Z,1659.00
2023-05-21T03:40:30.009Z,1656.00
2023-05-21T03:41:30.050Z,1664.00
2023-05-21T03:42:30.133Z,1656.00
2023-05-21T03:43:30.175Z,1680.00
2023-05-21T03:44:30.218Z,1658.00
2023-05-21T03:45:30.264Z,1673.00
2023-05-21T03:46:30.346Z,1667.00
2023-05-21T03:47:30.385Z,1661.00
2023-05-21T03:48:30.395Z,1665.00
2023-05-21T03:49:30.437Z,1671.00
2023-05-21T03:50:30.511Z,1667.00
2023-05-21T03:51:30.560Z,1670.00
2023-05-21T03:52:30.618Z,1669.00
2023-05-21T03:53:30.666Z,1672.00
2023-05-21T03:54:30.714Z,1661.00
2023-05-21T03:55:30.776Z,1664.00
2023-05-21T03:56:30.808Z,1657.00
2023-05-21T03:57:30.862Z,1667.00
2023-05-21T03:58:30.887Z,1665.00
2023-05-21T03:59:30.943Z,1665.00
2023-05-21T04:00:31.003Z,1656.00
2023-05-21T04:01:31.061Z,1671.00
2023-05-21T04:02:31.123Z,1666.00
2023-05-21T04:03:31.282Z,1652.00
2023-05-21T04:04:31.180Z,1652.00
2023-05-21T04:05:31.214Z,1662.00
2023-05-21T04:06:31.223Z,1660.00
2023-05-21T04:07:31.228Z,1656.00
2023-05-21T04:08:31.256Z,1660.00
2023-05-21T04:09:31.322Z,1637.00
2023-05-21T04:10:31.341Z,1641.00
2023-05-21T04:11:31.386Z,1647.00
2023-05-21T04:12:31.414Z,1626.00
2023-05-21T04:13:31.443Z,1638.00
2023-05-21T04:14:31.468Z,1662.00
2023-05-21T04:15:31.504Z,1643.00
2023-05-21T04:16:31.705Z,1646.00
2023-05-21T04:17:31.620Z,1650.00
2023-05-21T04:18:31.646Z,1639.00
2023-05-21T04:19:31.776Z,1670.00
2023-05-21T04:20:31.718Z,1646.00
2023-05-21T04:21:31.757Z,1648.00
2023-05-21T04:22:31.868Z,1629.00
2023-05-21T04:23:31.870Z,1636.00
2023-05-21T04:24:31.907Z,1630.00
2023-05-21T04:25:31.932Z,1667.00
2023-05-21T04:26:31.985Z,1648.00
2023-05-21T04:27:32.045Z,1638.00
2023-05-21T04:28:32.113Z,1644.00
2023-05-21T04:29:32.173Z,1643.00
2023-05-21T04:30:32.233Z,1642.00
2023-05-21T04:31:32.362Z,1628.00
2023-05-21T04:32:32.340Z,1633.00
2023-05-21T04:33:32.385Z,1640.00
2023-05-21T04:34:32.453Z,1640.00
2023-05-21T04:35:32.502Z,1630.00
2023-05-21T04:36:32.547Z,1638.00
2023-05-21T04:37:32.616Z,1634.00
2023-05-21T04:38:32.669Z,1636.00
2023-05-21T04:39:32.747Z,1636.00
2023-05-21T04:40:32.809Z,1630.00
2023-05-21T04:41:32.779Z,1652.00
2023-05-21T04:42:32.774Z,1636.00
2023-05-21T04:43:32.752Z,1629.00
2023-05-21T04:44:32.750Z,1646.00
2023-05-21T04:45:32.812Z,1632.00
2023-05-21T04:46:32.746Z,1629.00
2023-05-21T04:47:32.732Z,1631.00
2023-05-21T04:48:32.715Z,1627.00
2023-05-21T04:49:32.690Z,1634.00
2023-05-21T04:50:32.668Z,1620.00
2023-05-21T04:51:32.662Z,1625.00
2023-05-21T04:52:32.625Z,1616.00
2023-05-21T04:53:32.631Z,1609.00
2023-05-21T04:54:32.631Z,1617.00
2023-05-21T04:55:32.606Z,1620.00
2023-05-21T04:56:32.593Z,1629.00
2023-05-21T04:57:32.580Z,1629.00
2023-05-21T04:58:32.570Z,1625.00
2023-05-21T04:59:32.563Z,1623.00
2023-05-21T05:00:32.564Z,1603.00
2023-05-21T05:01:32.533Z,1601.00
2023-05-21T05:02:32.560Z,1602.00
2023-05-21T05:03:32.582Z,1610.00
2023-05-21T05:04:32.526Z,1588.00
2023-05-21T05:05:32.495Z,1576.00
2023-05-21T05:06:32.497Z,1548.00
2023-05-21T05:07:32.550Z,1551.00
2023-05-21T05:08:32.558Z,1561.00
2023-05-21T05:09:32.592Z,1560.00
2023-05-21T05:10:32.672Z,1558.00
2023-05-21T05:11:32.693Z,1546.00
2023-05-21T05:12:32.754Z,1562.00
2023-05-21T05:13:32.741Z,1563.00
2023-05-21T05:14:32.732Z,1554.00
2023-05-21T05:15:32.729Z,1550.00
2023-05-21T05:16:32.747Z,1531.00
2023-05-21T05:17:32.775Z,1548.00
2023-05-21T05:18:32.697Z,1550.00
2023-05-21T05:19:32.729Z,1560.00
2023-05-21T05:20:32.682Z,1538.00
2023-05-21T05:21:32.675Z,1540.00
2023-05-21T05:22:32.745Z,1543.00
2023-05-21T05:23:32.813Z,1555.00
2023-05-21T05:24:32.868Z,1548.00
2023-05-21T05:25:32.922Z,1544.00
2023-05-21T05:26:32.969Z,1542.00
2023-05-21T05:27:33.038Z,1554.00
2023-05-21T05:28:33.089Z,1544.00
2023-05-21T05:29:33.158Z,1553.00
2023-05-21T05:30:33.233Z,1536.00
2023-05-21T05:31:33.337Z,1537.00
2023-05-21T05:32:33.389Z,1552.00
2023-05-21T05:33:33.320Z,1552.00
2023-05-21T05:34:33.311Z,1553.00
2023-05-21T05:35:33.376Z,1552.00
2023-05-21T05:36:33.287Z,1552.00
2023-05-21T05:37:33.281Z,1555.00
2023-05-21T05:38:33.268Z,1555.00
2023-05-21T05:39:33.258Z,1553.00
2023-05-21T05:40:33.245Z,1537.00
2023-05-21T05:41:33.225Z,1545.00
2023-05-21T05:42:33.222Z,1542.00
2023-05-21T05:43:33.211Z,1548.00
2023-05-21T05:44:33.197Z,1552.00
2023-05-21T05:45:33.199Z,1547.00
2023-05-21T05:46:33.223Z,1524.00
2023-05-21T05:47:33.203Z,1541.00
2023-05-21T05:48:33.152Z,1531.00
2023-05-21T05:49:33.144Z,1512.00
2023-05-21T05:50:33.132Z,1523.00
2023-05-21T05:51:33.124Z,1518.00
2023-05-21T05:52:33.127Z,1517.00
2023-05-21T05:53:33.185Z,1530.00
2023-05-21T05:54:33.244Z,1528.00
2023-05-21T05:55:33.314Z,1498.00
2023-05-21T05:56:33.347Z,1498.00
2023-05-21T05:57:33.414Z,1492.00
2023-05-21T05:58:33.489Z,1510.00
2023-05-21T05:59:33.526Z,1510.00
2023-05-21T06:00:33.590Z,1481.00
2023-05-21T06:01:33.645Z,1489.00
2023-05-21T06:02:33.779Z,1481.00
2023-05-21T06:03:33.830Z,1493.00
2023-05-21T06:04:33.796Z,1452.00
2023-05-21T06:05:33.876Z,1462.00
2023-05-21T06:06:33.878Z,1432.00
2023-05-21T06:07:33.932Z,1414.00
2023-05-21T06:08:35.030Z,1413.00
2023-05-21T06:09:33.958Z,1426.00
2023-05-21T06:10:33.941Z,1413.00
2023-05-21T06:11:33.924Z,1415.00
2023-05-21T06:12:33.918Z,1403.00
2023-05-21T06:13:33.914Z,1406.00
2023-05-21T06:14:33.890Z,1403.00
2023-05-21T06:15:33.935Z,1427.00
2023-05-21T06:16:34.039Z,1401.00
2023-05-21T06:17:33.886Z,1387.00
2023-05-21T06:18:33.829Z,1377.00
2023-05-21T06:19:33.913Z,1325.00
2023-05-21T06:20:33.792Z,1303.00
2023-05-21T06:21:33.775Z,1311.00
2023-05-21T06:22:33.777Z,1315.00
2023-05-21T06:23:33.739Z,1336.00
2023-05-21T06:24:33.727Z,1312.00
2023-05-21T06:25:33.784Z,1321.00
2023-05-21T06:26:33.708Z,1315.00
2023-05-21T06:27:33.687Z,1319.00
2023-05-21T06:28:33.676Z,1306.00
2023-05-21T06:29:33.642Z,1316.00
2023-05-21T06:30:33.652Z,1315.00
2023-05-21T06:31:33.606Z,1318.00
2023-05-21T06:32:33.665Z,1313.00
2023-05-21T06:33:33.636Z,1287.00
2023-05-21T06:34:33.575Z,1296.00
2023-05-21T06:35:33.551Z,1287.00
2023-05-21T06:36:33.566Z,1279.00
2023-05-21T06:37:33.532Z,1289.00
2023-05-21T06:38:33.516Z,1275.00
2023-05-21T06:39:33.492Z,1283.00
2023-05-21T06:40:33.490Z,1266.00
2023-05-21T06:41:33.457Z,1276.00
2023-05-21T06:42:33.455Z,1280.00
2023-05-21T06:43:33.429Z,1289.00
2023-05-21T06:44:33.425Z,1289.00
2023-05-21T06:45:33.415Z,1304.00
2023-05-21T06:46:33.443Z,1291.00
2023-05-21T06:47:33.462Z,1291.00
2023-05-21T06:48:33.360Z,1271.00
2023-05-21T06:49:33.330Z,1292.00
2023-05-21T06:50:33.333Z,1278.00
2023-05-21T06:51:33.297Z,1276.00
2023-05-21T06:52:33.292Z,1303.00
2023-05-21T06:53:33.261Z,1303.00
2023-05-21T06:54:33.241Z,1305.00
2023-05-21T06:55:33.221Z,1292.00
2023-05-21T06:56:33.203Z,1305.00
2023-05-21T06:57:33.184Z,1293.00
2023-05-21T06:58:33.190Z,1288.00
2023-05-21T06:59:33.142Z,1299.00
2023-05-21T07:00:33.125Z,1275.00
2023-05-21T07:01:33.157Z,1282.00
2023-05-21T07:02:33.259Z,1256.00
2023-05-21T07:03:33.122Z,1262.00
2023-05-21T07:04:33.048Z,1268.00
2023-05-21T07:05:33.024Z,1261.00
2023-05-21T07:06:33.030Z,1266.00
2023-05-21T07:07:32.995Z,1255.00
2023-05-21T07:08:33.017Z,1244.00
2023-05-21T07:09:33.017Z,1225.00
2023-05-21T07:10:33.052Z,1233.00
2023-05-21T07:11:33.054Z,1227.00
2023-05-21T07:12:33.054Z,1220.00
2023-05-21T07:13:33.064Z,1241.00
2023-05-21T07:14:33.078Z,1243.00
2023-05-21T07:15:33.090Z,1201.00
2023-05-21T07:16:33.159Z,1218.00
2023-05-21T07:17:33.141Z,1213.00
2023-05-21T07:18:33.126Z,1198.00
2023-05-21T07:19:33.217Z,1208.00
2023-05-21T07:20:33.163Z,1223.00
2023-05-21T07:21:33.205Z,1203.00
2023-05-21T07:22:33.173Z,1214.00
2023-05-21T07:23:33.170Z,1204.00
2023-05-21T07:24:33.178Z,1207.00
2023-05-21T07:25:33.194Z,1210.00
2023-05-21T07:26:33.182Z,1203.00
2023-05-21T07:27:33.181Z,1197.00
2023-05-21T07:28:33.186Z,1199.00
2023-05-21T07:29:33.188Z,1203.00
2023-05-21T07:30:33.191Z,1184.00
2023-05-21T07:31:33.333Z,1176.00
2023-05-21T07:32:33.196Z,1184.00
2023-05-21T07:33:33.180Z,1179.00
2023-05-21T07:34:33.182Z,1190.00
2023-05-21T07:35:33.194Z,1166.00
2023-05-21T07:36:33.184Z,1181.00
2023-05-21T07:37:33.297Z,1180.00
2023-05-21T07:38:33.305Z,1206.00
2023-05-21T07:39:33.315Z,1202.00
2023-05-21T07:40:33.308Z,1218.00
2023-05-21T07:41:33.299Z,1167.00
2023-05-21T07:42:33.284Z,1166.00
2023-05-21T07:43:33.347Z,1184.00
2023-05-21T07:44:33.348Z,1161.00
2023-05-21T07:45:33.330Z,1142.00
2023-05-21T07:46:33.366Z,1123.00
2023-05-21T07:47:33.336Z,1140.00
2023-05-21T07:48:35.410Z,1175.00
2023-05-21T07:49:33.375Z,1188.00
2023-05-21T07:50:33.425Z,1175.00
2023-05-21T07:51:33.515Z,1128.00
2023-05-21T07:52:33.642Z,1109.00
2023-05-21T07:53:33.663Z,1137.00
2023-05-21T07:54:33.761Z,1135.00
2023-05-21T07:55:33.832Z,1136.00
2023-05-21T07:56:33.973Z,1128.00
2023-05-21T07:57:33.999Z,1141.00
2023-05-21T07:58:34.085Z,1102.00
2023-05-21T07:59:34.172Z,1097.00
2023-05-21T08:00:34.254Z,1145.00
2023-05-21T08:01:34.230Z,1149.00
2023-05-21T08:02:34.291Z,1148.00
2023-05-21T08:03:34.410Z,1144.00
2023-05-21T08:04:34.239Z,1151.00
2023-05-21T08:05:34.356Z,1148.00
2023-05-21T08:06:34.240Z,1131.00
2023-05-21T08:07:34.219Z,1141.00
2023-05-21T08:08:34.202Z,1146.00
2023-05-21T08:09:34.195Z,1156.00
2023-05-21T08:10:34.166Z,1139.00
2023-05-21T08:11:34.221Z,1156.00
2023-05-21T08:12:34.314Z,1135.00
2023-05-21T08:13:34.368Z,1121.00
2023-05-21T08:14:34.370Z,1110.00
2023-05-21T08:15:34.471Z,1110.00
2023-05-21T08:16:34.328Z,1107.00
2023-05-21T08:17:34.349Z,1114.00
2023-05-21T08:18:34.332Z,1113.00
2023-05-21T08:19:34.516Z,1113.00
2023-05-21T08:20:34.355Z,1115.00
2023-05-21T08:21:34.316Z,1132.00
2023-05-21T08:22:34.310Z,1128.00
2023-05-21T08:23:34.284Z,1101.00
2023-05-21T08:24:34.301Z,1119.00
2023-05-21T08:25:34.351Z,1099.00
2023-05-21T08:26:34.244Z,1069.00
2023-05-21T08:27:34.213Z,1093.00
2023-05-21T08:28:34.181Z,1108.00
2023-05-21T08:29:34.146Z,1100.00
2023-05-21T08:30:34.151Z,1073.00
2023-05-21T08:31:34.194Z,1067.00
2023-05-21T08:32:34.172Z,1099.00
2023-05-21T08:33:34.119Z,1105.00
2023-05-21T08:34:34.118Z,1097.00
2023-05-21T08:35:34.112Z,1104.00
2023-05-21T08:36:34.085Z,1086.00
2023-05-21T08:37:34.125Z,1090.00
2023-05-21T08:38:34.109Z,1071.00
2023-05-21T08:39:34.095Z,1084.00
2023-05-21T08:40:34.136Z,1066.00
2023-05-21T08:41:34.139Z,1063.00
2023-05-21T08:42:37.146Z,1049.00
2023-05-21T08:43:34.149Z,1041.00
2023-05-21T08:44:34.135Z,1064.00
2023-05-21T08:45:34.177Z,1078.00
2023-05-21T08:46:34.082Z,1080.00
2023-05-21T08:47:34.089Z,1088.00
2023-05-21T08:48:34.042Z,1105.00
2023-05-21T08:49:34.023Z,1123.00
2023-05-21T08:50:33.987Z,1102.00
2023-05-21T08:51:33.959Z,1108.00
2023-05-21T08:52:33.934Z,1125.00
2023-05-21T08:53:33.908Z,1107.00
2023-05-21T08:54:33.879Z,1128.00
2023-05-21T08:55:33.892Z,1068.00
2023-05-21T08:56:33.830Z,1104.00
2023-05-21T08:57:33.796Z,1093.00
2023-05-21T08:58:33.838Z,1117.00
2023-05-21T08:59:33.747Z,1120.00
2023-05-21T09:00:33.730Z,1098.00
2023-05-21T09:01:33.753Z,1104.00
2023-05-21T09:02:33.701Z,1092.00
2023-05-21T09:03:33.708Z,1081.00
2023-05-21T09:04:33.664Z,1106.00
2023-05-21T09:05:33.622Z,1115.00
2023-05-21T09:06:33.573Z,1123.00
2023-05-21T09:07:33.549Z,1123.00
2023-05-21T09:08:33.529Z,1115.00
2023-05-21T09:09:33.530Z,1115.00
2023-05-21T09:10:33.496Z,1121.00
2023-05-21T09:11:33.465Z,1129.00
2023-05-21T09:12:33.441Z,1127.00
2023-05-21T09:13:33.490Z,1137.00
2023-05-21T09:14:33.378Z,1133.00
2023-05-21T09:15:33.360Z,1096.00
2023-05-21T09:16:33.373Z,1086.00
2023-05-21T09:17:33.337Z,1109.00
2023-05-21T09:18:33.280Z,1095.00
2023-05-21T09:19:33.344Z,1063.00
2023-05-21T09:20:33.243Z,1071.00
2023-05-21T09:21:33.231Z,1097.00
2023-05-21T09:22:33.185Z,1112.00
2023-05-21T09:23:33.164Z,1107.00
2023-05-21T09:24:35.749Z,1129.00
2023-05-21T09:25:33.195Z,1138.00
2023-05-21T09:26:33.103Z,1142.00
2023-05-21T09:27:33.057Z,1153.00
2023-05-21T09:28:33.063Z,1135.00
2023-05-21T09:29:33.021Z,1148.00
2023-05-21T09:30:35.890Z,1147.00
2023-05-21T09:31:33.170Z,1148.00
2023-05-21T09:32:32.965Z,1150.00
2023-05-21T09:33:32.917Z,1147.00
2023-05-21T09:34:32.900Z,1146.00
2023-05-21T09:35:32.882Z,1144.00
2023-05-21T09:36:32.862Z,1164.00
2023-05-21T09:37:32.836Z,1135.00
2023-05-21T09:38:32.803Z,1146.00
2023-05-21T09:39:32.769Z,1110.00
2023-05-21T09:40:32.755Z,1131.00
2023-05-21T09:41:32.732Z,1109.00
2023-05-21T09:42:32.676Z,1116.00
2023-05-21T09:43:32.641Z,1119.00
2023-05-21T09:44:32.629Z,1130.00
2023-05-21T09:45:32.590Z,1144.00
2023-05-21T09:46:32.645Z,1136.00
2023-05-21T09:47:32.599Z,1134.00
2023-05-21T09:48:32.529Z,1149.00
2023-05-21T09:49:32.480Z,1154.00
2023-05-21T09:50:32.468Z,1170.00
2023-05-21T09:51:32.452Z,1177.00
2023-05-21T09:52:32.416Z,1164.00
2023-05-21T09:53:32.401Z,1159.00
2023-05-21T09:54:32.397Z,1169.00
2023-05-21T09:55:32.338Z,1167.00
2023-05-21T09:56:32.608Z,1174.00
2023-05-21T09:57:32.284Z,1170.00
2023-05-21T09:58:32.257Z,1163.00
2023-05-21T09:59:32.238Z,1164.00
2023-05-21T10:00:32.217Z,1165.00
2023-05-21T10:01:32.215Z,1128.00
2023-05-21T10:02:32.193Z,1121.00
2023-05-21T10:03:32.112Z,1062.00
2023-05-21T10:04:32.134Z,1072.00
2023-05-21T10:05:32.085Z,1050.00
2023-05-21T10:06:32.082Z,1049.00
2023-05-21T10:07:32.113Z,1062.00
2023-05-21T10:08:32.169Z,1054.00
2023-05-21T10:09:32.211Z,1047.00
2023-05-21T10:10:32.268Z,1074.00
2023-05-21T10:11:32.294Z,1118.00
2023-05-21T10:12:32.343Z,1104.00
2023-05-21T10:13:32.295Z,1105.00
2023-05-21T10:14:32.300Z,1068.00
2023-05-21T10:15:32.245Z,1084.00
2023-05-21T10:16:32.233Z,1097.00
2023-05-21T10:17:32.224Z,1139.00
2023-05-21T10:18:32.155Z,1129.00
2023-05-21T10:19:32.230Z,1134.00
2023-05-21T10:20:32.107Z,1131.00
2023-05-21T10:21:32.130Z,1117.00
2023-05-21T10:22:32.156Z,1071.00
2023-05-21T10:23:32.195Z,1097.00
2023-05-21T10:24:32.236Z,1122.00
2023-05-21T10:25:32.283Z,1117.00
2023-05-21T10:26:32.315Z,1117.00
2023-05-21T10:27:32.995Z,1071.00
2023-05-21T10:28:32.373Z,1066.00
2023-05-21T10:29:32.428Z,1110.00
2023-05-21T10:30:32.479Z,1117.00
2023-05-21T10:31:32.520Z,1112.00
2023-05-21T10:32:32.663Z,1097.00
2023-05-21T10:33:32.610Z,1106.00
2023-05-21T10:34:32.603Z,1124.00
2023-05-21T10:35:32.640Z,1129.00
2023-05-21T10:36:32.703Z,1134.00
2023-05-21T10:37:32.730Z,1133.00
2023-05-21T10:38:32.754Z,1157.00
2023-05-21T10:39:32.778Z,1152.00
2023-05-21T10:40:32.884Z,1163.00
2023-05-21T10:41:32.862Z,1176.00
2023-05-21T10:42:32.900Z,1173.00
2023-05-21T10:43:32.929Z,1183.00
2023-05-21T10:44:32.957Z,1176.00
2023-05-21T10:45:33.046Z,1173.00
2023-05-21T10:46:33.036Z,1181.00
2023-05-21T10:47:33.066Z,1148.00
2023-05-21T10:48:33.148Z,1176.00
2023-05-21T10:49:33.144Z,1164.00
2023-05-21T10:50:33.167Z,1187.00
2023-05-21T10:51:33.213Z,1187.00
2023-05-21T10:52:33.252Z,1195.00
2023-05-21T10:53:33.309Z,1194.00
2023-05-21T10:54:33.312Z,1186.00
2023-05-21T10:55:33.352Z,1202.00
2023-05-21T10:56:33.384Z,1201.00
2023-05-21T10:57:33.435Z,1213.00
2023-05-21T10:58:33.451Z,1217.00
2023-05-21T10:59:33.507Z,1204.00
2023-05-21T11:00:33.506Z,1201.00
2023-05-21T11:01:33.603Z,1195.00
2023-05-21T11:02:33.631Z,1191.00
2023-05-21T11:03:35.770Z,1208.00
2023-05-21T11:04:33.578Z,1206.00
2023-05-21T11:05:33.561Z,1195.00
2023-05-21T11:06:33.532Z,1212.00
2023-05-21T11:07:33.495Z,1218.00
2023-05-21T11:08:33.469Z,1227.00
2023-05-21T11:09:33.435Z,1216.00
2023-05-21T11:10:33.457Z,1221.00
2023-05-21T11:11:33.390Z,1214.00
2023-05-21T11:12:33.347Z,1212.00
2023-05-21T11:13:33.325Z,1224.00
2023-05-21T11:14:33.277Z,1220.00
2023-05-21T11:15:33.238Z,1221.00
2023-05-21T11:16:33.319Z,1216.00
2023-05-21T11:17:33.198Z,1236.00
2023-05-21T11:18:33.182Z,1233.00
2023-05-21T11:19:34.187Z,1212.00
2023-05-21T11:20:33.126Z,1223.00
2023-05-21T11:21:33.109Z,1242.00
2023-05-21T11:22:33.069Z,1213.00
2023-05-21T11:23:33.042Z,1232.00
2023-05-21T11:24:33.021Z,1226.00
2023-05-21T11:25:33.007Z,1233.00
2023-05-21T11:26:32.978Z,1224.00
2023-05-21T11:27:32.952Z,1221.00
2023-05-21T11:28:32.928Z,1225.00
2023-05-21T11:29:32.924Z,1214.00
2023-05-21T11:30:35.315Z,1213.00
2023-05-21T11:31:32.918Z,1236.00
2023-05-21T11:32:32.891Z,1213.00
2023-05-21T11:33:32.851Z,1194.00
2023-05-21T11:34:32.820Z,1194.00
2023-05-21T11:35:32.797Z,1202.00
2023-05-21T11:36:34.672Z,1182.00
2023-05-21T11:37:32.728Z,1182.00
2023-05-21T11:38:32.692Z,1166.00
2023-05-21T11:39:32.687Z,1132.00
2023-05-21T11:40:32.635Z,1155.00
2023-05-21T11:41:32.627Z,1145.00
2023-05-21T11:42:32.608Z,1145.00
2023-05-21T11:43:32.581Z,1162.00
2023-05-21T11:44:32.538Z,1166.00
2023-05-21T11:45:32.536Z,1190.00
2023-05-21T11:46:32.546Z,1175.00
2023-05-21T11:47:32.755Z,1176.00
2023-05-21T11:48:32.761Z,1185.00
2023-05-21T11:49:32.422Z,1188.00
2023-05-21T11:50:32.404Z,1191.00
2023-05-21T11:51:32.369Z,1187.00
2023-05-21T11:52:32.339Z,1185.00
2023-05-21T11:53:32.325Z,1205.00
2023-05-21T11:54:32.298Z,1190.00
2023-05-21T11:55:32.283Z,1209.00
2023-05-21T11:56:32.242Z,1202.00
2023-05-21T11:57:32.216Z,1193.00
2023-05-21T11:58:32.179Z,1208.00
2023-05-21T11:59:32.145Z,1190.00
2023-05-21T12:00:32.137Z,1204.00
2023-05-21T12:01:32.114Z,1203.00
2023-05-21T12:02:32.384Z,1192.00
2023-05-21T12:03:32.177Z,1172.00
2023-05-21T12:04:32.087Z,1176.00
2023-05-21T12:05:32.045Z,1214.00